createdAt,value
2018-04-14T00:02:52.043Z,100142
2018-04-14T00:07:53.573Z,100139
2018-04-14T00:12:55.104Z,100152
2018-04-14T00:17:56.647Z,100136
2018-04-14T00:22:58.162Z,100148
2018-04-14T00:28:00.404Z,100149
2018-04-14T00:33:01.998Z,100155
2018-04-14T00:38:04.380Z,100160
2018-04-14T00:43:05.902Z,100171
2018-04-14T00:48:07.450Z,100178
2018-04-14T01:09:15.101Z,100179
2018-04-14T01:14:16.622Z,100177
2018-04-14T01:19:18.106Z,100174
2018-04-14T01:24:19.616Z,100172
2018-04-14T01:29:21.064Z,100168
2018-04-14T01:34:22.511Z,100170
2018-04-14T01:39:24.102Z,100172
2018-04-14T01:44:25.592Z,100190
2018-04-14T01:49:27.069Z,100186
2018-04-14T01:54:29.370Z,100188
2018-04-14T01:59:31.593Z,100192
2018-04-14T02:04:33.134Z,100197
2018-04-14T02:09:34.759Z,100186
2018-04-14T02:14:36.327Z,100203
2018-04-14T02:19:37.836Z,100184
2018-04-14T02:24:39.511Z,100185
2018-04-14T02:29:41.227Z,100186
2018-04-14T02:34:42.778Z,100189
2018-04-14T02:39:44.421Z,100196
2018-04-14T02:44:45.966Z,100206
2018-04-14T02:49:48.231Z,100208
2018-04-14T02:54:49.784Z,100208
2018-04-14T02:59:51.370Z,100209
2018-04-14T03:04:52.935Z,100202
2018-04-14T03:09:54.503Z,100207
2018-04-14T03:14:55.996Z,100210
2018-04-14T03:19:58.284Z,100234
2018-04-14T03:25:00.515Z,100244
2018-04-14T03:30:02.033Z,100246
2018-04-14T03:35:04.283Z,100247
2018-04-14T03:40:05.826Z,100248
2018-04-14T03:45:07.357Z,100252
2018-04-14T03:50:09.600Z,100264
2018-04-14T03:55:11.200Z,100270
2018-04-14T04:00:13.551Z,100275
2018-04-14T04:05:15.150Z,100266
2018-04-14T04:10:16.742Z,100265
2018-04-14T04:15:18.289Z,100271
2018-04-14T04:20:35.996Z,100270
2018-04-14T04:25:42.308Z,100282
2018-04-14T04:30:44.548Z,100283
2018-04-14T04:35:46.028Z,100293
2018-04-14T04:40:47.598Z,100290
2018-04-14T04:45:49.112Z,100292
2018-04-14T04:50:51.379Z,100316
2018-04-14T04:55:52.959Z,100315
2018-04-14T05:00:55.245Z,100322
2018-04-14T05:05:57.507Z,100337
2018-04-14T05:10:59.016Z,100342
2018-04-14T05:16:00.518Z,100349
2018-04-14T05:21:02.020Z,100347
2018-04-14T05:26:03.553Z,100375
2018-04-14T05:31:05.056Z,100378
2018-04-14T05:36:06.559Z,100372
2018-04-14T05:41:08.068Z,100384
2018-04-14T05:46:09.603Z,100381
2018-04-14T05:51:11.152Z,100385
2018-04-14T05:56:12.789Z,100386
2018-04-14T06:01:14.339Z,100388
2018-04-14T06:06:15.943Z,100390
2018-04-14T06:11:18.250Z,100384
2018-04-14T06:16:20.019Z,100391
2018-04-14T06:21:21.535Z,100406
2018-04-14T06:26:23.075Z,100412
2018-04-14T06:31:24.578Z,100419
2018-04-14T06:36:26.032Z,100422
2018-04-14T06:41:27.676Z,100424
2018-04-14T06:46:29.250Z,100428
2018-04-14T06:51:31.511Z,100428
2018-04-14T06:56:33.084Z,100454
2018-04-14T07:01:34.652Z,100456
2018-04-14T07:06:36.218Z,100459
2018-04-14T07:11:37.833Z,100468
2018-04-14T07:16:39.376Z,100468
2018-04-14T07:21:40.942Z,100472
2018-04-14T07:26:42.640Z,100492
2018-04-14T07:31:44.120Z,100486
2018-04-14T07:36:52.528Z,100499
2018-04-14T07:41:54.133Z,100483
2018-04-14T07:46:55.711Z,100495
2018-04-14T07:51:58.221Z,100505
2018-04-14T07:56:59.722Z,100508
2018-04-14T08:02:01.313Z,100501
2018-04-14T08:07:02.969Z,100504
2018-04-14T08:12:04.506Z,100511
2018-04-14T08:17:06.075Z,100489
2018-04-14T08:22:14.640Z,100490
2018-04-14T08:27:16.256Z,100486
2018-04-14T08:32:18.544Z,100504
2018-04-14T08:37:20.198Z,100496
2018-04-14T08:42:22.000Z,100519
2018-04-14T08:47:35.806Z,100513
2018-04-14T08:58:16.798Z,100515
2018-04-14T09:03:18.355Z,100517
2018-04-14T09:08:19.970Z,100520
2018-04-14T09:13:21.576Z,100528
2018-04-14T09:18:31.208Z,100529
2018-04-14T09:23:33.853Z,100515
2018-04-14T09:28:39.080Z,100513
2018-04-14T09:33:41.429Z,100513
2018-04-14T09:38:43.115Z,100519
2018-04-14T09:43:44.697Z,100520
2018-04-14T09:48:47.077Z,100506
2018-04-14T09:53:49.375Z,100501
2018-04-14T09:58:51.733Z,100501
2018-04-14T10:03:53.294Z,100497
2018-04-14T10:08:54.859Z,100500
2018-04-14T10:13:56.436Z,100488
2018-04-14T10:18:57.975Z,100477
2018-04-14T10:23:59.518Z,100462
2018-04-14T10:29:01.117Z,100467
2018-04-14T10:34:02.704Z,100465
2018-04-14T10:39:04.276Z,100467
2018-04-14T10:44:05.840Z,100473
2018-04-14T10:49:07.388Z,100465
2018-04-14T10:54:08.975Z,100469
2018-04-14T10:59:10.565Z,100461
2018-04-14T11:04:12.139Z,100453
2018-04-14T11:09:14.467Z,100466
2018-04-14T11:14:16.016Z,100446
2018-04-14T11:19:17.609Z,100448
2018-04-14T11:24:19.855Z,100450
2018-04-14T11:29:22.163Z,100451
2018-04-14T11:34:23.761Z,100446
2018-04-14T11:39:25.257Z,100444
2018-04-14T11:44:26.796Z,100432
2018-04-14T11:49:28.285Z,100436
2018-04-14T11:54:29.827Z,100437
2018-04-14T11:59:31.392Z,100431
2018-04-14T12:04:32.983Z,100425
2018-04-14T12:09:34.580Z,100434
2018-04-14T12:14:36.102Z,100423
2018-04-14T12:19:37.666Z,100439
2018-04-14T12:24:39.212Z,100425
2018-04-14T12:29:40.819Z,100429
2018-04-14T12:34:42.423Z,100417
2018-04-14T12:39:43.917Z,100412
2018-04-14T12:44:45.477Z,100408
2018-04-14T12:49:47.773Z,100416
2018-04-14T12:54:49.282Z,100411
2018-04-14T12:59:50.831Z,100407
2018-04-14T13:04:52.411Z,100417
2018-04-14T13:09:53.904Z,100452
2018-04-14T13:14:55.432Z,100435
2018-04-14T13:19:56.938Z,100425
2018-04-14T13:24:58.441Z,100430
2018-04-14T13:29:59.991Z,100432
2018-04-14T13:35:02.297Z,100421
2018-04-14T13:40:03.824Z,100412
2018-04-14T13:45:05.408Z,100411
2018-04-14T13:50:06.964Z,100407
2018-04-14T13:55:08.528Z,100402
2018-04-14T14:00:10.247Z,100394
2018-04-14T14:05:11.824Z,100387
2018-04-14T14:10:13.327Z,100376
2018-04-14T14:15:14.827Z,100375
2018-04-14T14:20:17.083Z,100357
2018-04-14T14:25:18.627Z,100355
2018-04-14T14:30:20.208Z,100345
2018-04-14T14:35:21.716Z,100347
2018-04-14T14:40:24.230Z,100343
2018-04-14T14:45:25.791Z,100340
2018-04-14T14:50:29.116Z,100335
2018-04-14T14:55:31.692Z,100320
2018-04-14T15:00:33.275Z,100319
2018-04-14T15:05:34.745Z,100318
2018-04-14T15:10:36.193Z,100312
2018-04-14T15:15:37.706Z,100314
2018-04-14T15:20:39.253Z,100310
2018-04-14T15:25:40.774Z,100310
2018-04-14T15:30:43.085Z,100303
2018-04-14T15:35:44.736Z,100300
2018-04-14T15:40:47.128Z,100305
2018-04-14T15:45:48.705Z,100305
2018-04-14T15:50:51.349Z,100311
2018-04-14T15:55:53.092Z,100307
2018-04-14T16:00:54.680Z,100307
2018-04-14T16:05:56.186Z,100302
2018-04-14T16:10:57.738Z,100311
2018-04-14T16:15:59.278Z,100293
2018-04-14T16:21:00.929Z,100293
2018-04-14T16:26:02.457Z,100298
2018-04-14T16:31:04.039Z,100305
2018-04-14T16:36:06.385Z,100304
2018-04-14T16:41:08.037Z,100310
2018-04-14T16:46:09.743Z,100311
2018-04-14T16:51:11.364Z,100313
2018-04-14T16:56:13.024Z,100314
2018-04-14T17:01:14.779Z,100314
2018-04-14T17:06:17.135Z,100312
2018-04-14T17:11:18.734Z,100316
2018-04-14T17:16:21.197Z,100309
2018-04-14T17:21:22.924Z,100303
2018-04-14T17:26:24.500Z,100297
2018-04-14T17:31:26.142Z,100304
2018-04-14T17:36:28.514Z,100308
2018-04-14T17:41:30.065Z,100298
2018-04-14T17:46:31.591Z,100309
2018-04-14T17:51:33.197Z,100295
2018-04-14T17:56:34.800Z,100307
2018-04-14T18:01:37.123Z,100311
2018-04-14T18:06:38.672Z,100307
2018-04-14T18:11:40.227Z,100294
2018-04-14T18:16:42.539Z,100298
2018-04-14T18:21:44.055Z,100290
2018-04-14T18:26:45.551Z,100297
2018-04-14T18:31:47.856Z,100300
2018-04-14T18:36:49.408Z,100311
2018-04-14T18:41:51.663Z,100317
2018-04-14T18:46:53.452Z,100318
2018-04-14T18:51:55.846Z,100324
2018-04-14T18:56:58.168Z,100330
2018-04-14T19:01:59.723Z,100335
2018-04-14T19:07:01.311Z,100338
2018-04-14T19:12:02.769Z,100334
2018-04-14T19:17:04.345Z,100340
2018-04-14T19:22:06.679Z,100347
2018-04-14T19:27:08.238Z,100345
2018-04-14T19:32:09.810Z,100334
2018-04-14T19:37:11.424Z,100334
2018-04-14T19:42:13.170Z,100335
2018-04-14T19:47:15.480Z,100340
2018-04-14T19:52:17.138Z,100333
2018-04-14T19:57:19.455Z,100320
2018-04-14T20:02:21.033Z,100326
2018-04-14T20:07:22.578Z,100331
2018-04-14T20:12:24.149Z,100324
2018-04-14T20:17:25.707Z,100316
2018-04-14T20:22:27.479Z,100330
2018-04-14T20:27:29.093Z,100324
2018-04-14T20:32:30.850Z,100324
2018-04-14T20:37:32.492Z,100318
2018-04-14T20:42:34.293Z,100315
2018-04-14T20:47:35.854Z,100307
2018-04-14T20:52:37.447Z,100306
2018-04-14T20:57:38.998Z,100305
2018-04-14T21:02:40.590Z,100307
2018-04-14T21:07:42.140Z,100288
2018-04-14T21:12:43.866Z,100288
2018-04-14T21:17:46.177Z,100302
2018-04-14T21:22:47.659Z,100286
2018-04-14T21:27:49.254Z,100283
2018-04-14T21:32:51.760Z,100285
2018-04-14T21:37:53.294Z,100284
2018-04-14T21:42:54.872Z,100266
2018-04-14T21:47:56.436Z,100268
2018-04-14T21:52:57.907Z,100262
2018-04-14T21:57:59.448Z,100248
2018-04-14T22:03:00.999Z,100256
2018-04-14T22:08:02.619Z,100247
2018-04-14T22:13:04.138Z,100251
2018-04-14T22:18:05.668Z,100236
2018-04-14T22:23:07.260Z,100245
2018-04-14T22:28:09.583Z,100237
2018-04-14T22:33:11.145Z,100237
2018-04-14T22:38:12.769Z,100229
2018-04-14T22:43:14.379Z,100221
2018-04-14T22:48:15.929Z,100217
2018-04-14T22:53:18.229Z,100220
2018-04-14T22:58:19.736Z,100213
2018-04-14T23:03:21.329Z,100219
2018-04-14T23:08:22.841Z,100213
2018-04-14T23:13:24.391Z,100211
2018-04-14T23:18:25.850Z,100200
2018-04-14T23:23:28.145Z,100202
2018-04-14T23:28:29.649Z,100197
2018-04-14T23:33:31.103Z,100194
2018-04-14T23:38:32.650Z,100183
2018-04-14T23:43:34.181Z,100170
2018-04-14T23:48:35.743Z,100169
2018-04-14T23:53:37.274Z,100172
2018-04-14T23:58:38.827Z,100163
